createdAt,value
2023-02-28T00:01:26.929Z,56.63
2023-02-28T00:03:53.651Z,55.85
2023-02-28T00:06:21.033Z,55.57
2023-02-28T00:08:47.648Z,55.79
2023-02-28T00:11:15.737Z,55.87
2023-02-28T00:13:47.240Z,55.57
2023-02-28T00:16:19.916Z,55.48
2023-02-28T00:18:48.442Z,54.68
2023-02-28T00:21:16.306Z,54.97
2023-02-28T00:23:42.969Z,55.14
2023-02-28T00:26:09.559Z,55.47
2023-02-28T00:28:36.447Z,55.07
2023-02-28T00:31:03.072Z,54.98
2023-02-28T00:33:30.113Z,54.54
2023-02-28T00:36:09.206Z,54.59
2023-02-28T00:38:36.536Z,54.52
2023-02-28T00:41:06.126Z,55.51
2023-02-28T00:43:38.439Z,54.98
2023-02-28T00:46:05.622Z,54.36
2023-02-28T00:48:32.639Z,54.27
2023-02-28T00:50:59.357Z,54.82
2023-02-28T00:53:26.335Z,54.32
2023-02-28T00:55:53.326Z,54.29
2023-02-28T00:58:19.987Z,54.21
2023-02-28T01:00:50.115Z,54.79
2023-02-28T01:03:20.927Z,54.29
2023-02-28T01:05:48.317Z,54.42
2023-02-28T01:08:15.413Z,54.51
2023-02-28T01:10:42.639Z,53.86
2023-02-28T01:13:09.547Z,55.18
2023-02-28T01:15:36.137Z,54.53
2023-02-28T01:18:02.740Z,54.49
2023-02-28T01:20:29.282Z,54.71
2023-02-28T01:22:55.876Z,54.61
2023-02-28T01:25:22.617Z,54.98
2023-02-28T01:27:49.269Z,55.03
2023-02-28T01:30:16.005Z,55.08
2023-02-28T01:32:42.557Z,54.98
2023-02-28T01:35:09.434Z,55.01
2023-02-28T01:37:36.012Z,54.53
2023-02-28T01:40:03.397Z,54.82
2023-02-28T01:42:29.985Z,53.94
2023-02-28T01:45:32.703Z,54.30
2023-02-28T01:48:03.204Z,54.68
2023-02-28T01:50:34.662Z,54.26
2023-02-28T01:53:05.357Z,54.23
2023-02-28T01:55:33.508Z,54.14
2023-02-28T01:58:03.663Z,54.12
2023-02-28T02:00:31.316Z,54.74
2023-02-28T02:03:02.378Z,54.51
2023-02-28T02:05:35.295Z,54.67
2023-02-28T02:08:08.924Z,54.50
2023-02-28T02:10:57.092Z,54.01
2023-02-28T02:13:38.782Z,54.19
2023-02-28T02:16:08.322Z,54.29
2023-02-28T02:18:50.976Z,53.86
2023-02-28T02:21:38.816Z,53.81
2023-02-28T02:24:39.548Z,54.02
2023-02-28T02:27:19.467Z,54.15
2023-02-28T02:30:09.723Z,53.79
2023-02-28T02:32:48.498Z,53.97
2023-02-28T02:35:25.226Z,53.70
2023-02-28T02:38:00.963Z,53.65
2023-02-28T02:40:44.624Z,53.51
2023-02-28T02:43:40.074Z,53.61
2023-02-28T02:46:29.336Z,53.88
2023-02-28T02:48:58.434Z,53.91
2023-02-28T02:51:25.986Z,53.71
2023-02-28T02:54:06.850Z,54.00
2023-02-28T02:56:35.619Z,53.59
2023-02-28T02:59:05.350Z,53.37
2023-02-28T03:01:35.680Z,53.15
2023-02-28T03:04:08.782Z,52.73
2023-02-28T03:06:36.385Z,53.09
2023-02-28T03:09:04.509Z,52.49
2023-02-28T03:11:32.495Z,52.94
2023-02-28T03:14:20.301Z,52.78
2023-02-28T03:16:55.662Z,52.98
2023-02-28T03:19:48.470Z,52.73
2023-02-28T03:22:55.842Z,53.16
2023-02-28T03:25:25.258Z,53.36
2023-02-28T03:28:14.819Z,53.03
2023-02-28T03:30:59.828Z,53.61
2023-02-28T03:33:35.936Z,53.15
2023-02-28T03:36:14.248Z,53.41
2023-02-28T03:38:46.985Z,53.18
2023-02-28T03:41:26.796Z,53.39
2023-02-28T03:44:25.366Z,53.19
2023-02-28T03:47:01.204Z,53.72
2023-02-28T03:50:00.215Z,53.83
2023-02-28T03:52:32.216Z,53.86
2023-02-28T03:55:08.038Z,53.63
2023-02-28T03:57:45.227Z,53.64
2023-02-28T04:00:22.120Z,54.12
2023-02-28T04:02:53.625Z,53.72
2023-02-28T04:05:23.970Z,54.01
2023-02-28T04:07:50.708Z,54.08
2023-02-28T04:10:17.784Z,53.88
2023-02-28T04:12:44.359Z,54.49
2023-02-28T04:15:12.280Z,54.02
2023-02-28T04:17:39.287Z,54.18
2023-02-28T04:20:10.511Z,54.52
2023-02-28T04:22:38.260Z,54.05
2023-02-28T04:25:06.693Z,54.57
2023-02-28T04:27:33.534Z,54.39
2023-02-28T04:30:00.295Z,54.33
2023-02-28T04:32:27.120Z,54.80
2023-02-28T04:34:53.871Z,54.28
2023-02-28T04:37:20.737Z,54.30
2023-02-28T04:39:47.349Z,54.20
2023-02-28T04:42:14.673Z,54.08
2023-02-28T04:44:41.276Z,54.04
2023-02-28T04:47:08.077Z,54.30
2023-02-28T04:49:34.679Z,54.07
2023-02-28T04:52:01.245Z,54.20
2023-02-28T04:54:29.330Z,54.32
2023-02-28T04:56:55.948Z,54.58
2023-02-28T04:59:22.544Z,54.23
2023-02-28T05:01:50.104Z,54.04
2023-02-28T05:04:18.150Z,54.87
2023-02-28T05:06:45.165Z,54.36
2023-02-28T05:09:14.590Z,54.24
2023-02-28T05:11:41.898Z,54.11
2023-02-28T05:14:12.501Z,54.34
2023-02-28T05:16:39.304Z,54.29
2023-02-28T05:19:06.129Z,54.50
2023-02-28T05:21:50.350Z,54.68
2023-02-28T05:24:23.505Z,54.74
2023-02-28T05:26:52.963Z,54.01
2023-02-28T05:29:20.325Z,54.33
2023-02-28T05:31:47.465Z,54.31
2023-02-28T05:34:16.530Z,54.32
2023-02-28T05:36:43.378Z,53.97
2023-02-28T05:39:14.212Z,53.93
2023-02-28T05:41:44.620Z,53.80
2023-02-28T05:44:12.019Z,54.35
2023-02-28T05:46:39.464Z,54.58
2023-02-28T05:49:06.425Z,54.38
2023-02-28T05:51:33.094Z,54.62
2023-02-28T05:54:01.550Z,54.47
2023-02-28T05:56:28.830Z,54.88
2023-02-28T05:58:55.425Z,54.55
2023-02-28T06:01:27.705Z,54.42
2023-02-28T06:03:54.399Z,54.66
2023-02-28T06:06:21.034Z,54.72
2023-02-28T06:08:47.872Z,54.59
2023-02-28T06:11:14.566Z,54.54
2023-02-28T06:13:41.705Z,54.44
2023-02-28T06:16:10.217Z,54.63
2023-02-28T06:18:37.017Z,55.02
2023-02-28T06:21:04.153Z,55.05
2023-02-28T06:23:30.941Z,54.68
2023-02-28T06:26:00.584Z,53.88
2023-02-28T06:28:27.178Z,54.16
2023-02-28T06:30:53.771Z,53.82
2023-02-28T06:33:20.384Z,53.63
2023-02-28T06:35:53.912Z,54.07
2023-02-28T06:38:20.490Z,53.82
2023-02-28T06:40:54.859Z,53.14
2023-02-28T06:43:21.837Z,53.13
2023-02-28T06:45:48.448Z,52.96
2023-02-28T06:48:15.011Z,53.28
2023-02-28T06:50:41.686Z,53.11
2023-02-28T06:53:08.310Z,52.81
2023-02-28T06:55:34.913Z,53.45
2023-02-28T06:58:01.457Z,52.28
2023-02-28T07:00:28.002Z,52.79
2023-02-28T07:02:56.060Z,52.90
2023-02-28T07:05:22.743Z,52.53
2023-02-28T07:07:49.637Z,52.49
2023-02-28T07:10:20.152Z,52.92
2023-02-28T07:12:46.952Z,52.35
2023-02-28T07:15:13.618Z,51.64
2023-02-28T07:17:40.197Z,51.92
2023-02-28T07:20:07.392Z,51.77
2023-02-28T07:22:34.009Z,50.59
2023-02-28T07:25:00.593Z,50.80
2023-02-28T07:27:27.326Z,50.53
2023-02-28T07:29:55.671Z,50.76
2023-02-28T07:32:22.388Z,50.51
2023-02-28T07:34:49.511Z,50.41
2023-02-28T07:37:16.206Z,50.22
2023-02-28T07:39:43.465Z,49.95
2023-02-28T07:42:12.773Z,50.50
2023-02-28T07:44:41.683Z,49.77
2023-02-28T07:47:09.663Z,49.28
2023-02-28T07:49:39.992Z,50.00
2023-02-28T07:52:08.054Z,49.17
2023-02-28T07:54:35.152Z,48.12
2023-02-28T07:57:01.732Z,48.64
2023-02-28T07:59:29.998Z,48.75
2023-02-28T08:01:58.928Z,48.15
2023-02-28T08:04:25.680Z,47.77
2023-02-28T08:06:54.966Z,47.49
2023-02-28T08:09:21.632Z,47.17
2023-02-28T08:11:48.284Z,47.52
2023-02-28T08:14:14.881Z,47.88
2023-02-28T08:16:41.477Z,48.23
2023-02-28T08:19:08.023Z,47.80
2023-02-28T08:21:34.602Z,48.09
2023-02-28T08:24:01.527Z,47.77
2023-02-28T08:26:28.063Z,47.45
2023-02-28T08:28:56.184Z,46.67
2023-02-28T08:31:24.091Z,47.05
2023-02-28T08:33:52.875Z,47.21
2023-02-28T08:36:20.438Z,44.96
2023-02-28T08:38:47.106Z,45.13
2023-02-28T08:41:14.178Z,44.11
2023-02-28T08:43:41.628Z,44.72
2023-02-28T08:46:08.956Z,43.25
2023-02-28T08:48:39.029Z,43.57
2023-02-28T08:51:10.049Z,42.30
2023-02-28T08:53:41.242Z,41.55
2023-02-28T08:56:14.060Z,42.61
2023-02-28T08:58:41.518Z,41.97
2023-02-28T09:01:10.652Z,40.98
2023-02-28T09:03:37.296Z,41.58
2023-02-28T09:06:04.379Z,42.11
2023-02-28T09:08:32.294Z,41.83
2023-02-28T09:11:02.389Z,41.61
2023-02-28T09:13:31.034Z,41.91
2023-02-28T09:16:03.641Z,42.07
2023-02-28T09:18:30.613Z,40.79
2023-02-28T09:20:58.708Z,40.31
2023-02-28T09:23:25.828Z,40.39
2023-02-28T09:25:54.916Z,40.78
2023-02-28T09:28:22.631Z,40.37
2023-02-28T09:30:52.590Z,39.50
2023-02-28T09:33:22.920Z,39.96
2023-02-28T09:35:50.633Z,39.95
2023-02-28T09:38:18.838Z,39.48
2023-02-28T09:40:56.539Z,39.48
2023-02-28T09:43:26.632Z,39.11
2023-02-28T09:46:03.520Z,39.46
2023-02-28T09:48:38.021Z,39.32
2023-02-28T09:51:24.436Z,39.22
2023-02-28T09:53:56.751Z,39.31
2023-02-28T09:56:43.424Z,39.95
2023-02-28T09:59:31.480Z,39.80
2023-02-28T10:02:11.576Z,39.14
2023-02-28T10:04:38.161Z,37.99
2023-02-28T10:07:33.112Z,38.46
2023-02-28T10:10:06.067Z,38.68
2023-02-28T10:12:34.345Z,38.71
2023-02-28T10:15:05.480Z,37.77
2023-02-28T10:20:32.330Z,39.42
2023-02-28T10:23:24.886Z,41.16
2023-02-28T10:25:57.956Z,38.61
2023-02-28T10:28:26.326Z,38.36
2023-02-28T10:30:54.852Z,38.16
2023-02-28T10:33:42.728Z,37.44
2023-02-28T10:36:15.179Z,37.73
2023-02-28T10:38:42.134Z,37.70
2023-02-28T10:41:16.251Z,36.22
2023-02-28T10:43:45.948Z,36.47
2023-02-28T10:46:24.081Z,35.46
2023-02-28T10:49:06.885Z,35.73
2023-02-28T10:51:41.552Z,35.22
2023-02-28T10:54:16.676Z,35.66
2023-02-28T10:56:43.358Z,35.18
2023-02-28T10:59:10.060Z,34.46
2023-02-28T11:01:39.818Z,36.34
2023-02-28T11:04:37.658Z,36.38
2023-02-28T11:07:27.539Z,35.93
2023-02-28T11:09:56.750Z,36.29
2023-02-28T11:12:50.845Z,36.61
2023-02-28T11:15:27.141Z,35.91
2023-02-28T11:18:20.385Z,35.17
2023-02-28T11:20:51.995Z,35.67
2023-02-28T11:23:21.114Z,35.56
2023-02-28T11:25:52.625Z,35.09
2023-02-28T11:28:33.583Z,34.64
2023-02-28T11:31:15.002Z,33.08
2023-02-28T11:33:45.869Z,32.96
2023-02-28T11:36:15.166Z,34.09
2023-02-28T11:38:43.157Z,34.92
2023-02-28T11:41:28.710Z,34.13
2023-02-28T11:44:33.759Z,35.20
2023-02-28T11:47:09.130Z,36.05
2023-02-28T11:49:51.364Z,35.94
2023-02-28T11:52:26.966Z,34.96
2023-02-28T11:55:20.427Z,34.69
2023-02-28T11:57:52.813Z,35.48
2023-02-28T12:00:37.445Z,34.17
2023-02-28T12:03:29.252Z,34.14
2023-02-28T12:06:28.727Z,36.18
2023-02-28T12:09:10.608Z,36.20
2023-02-28T12:11:49.288Z,35.37
2023-02-28T12:14:48.262Z,35.12
2023-02-28T12:17:44.378Z,34.78
2023-02-28T12:20:55.944Z,33.64
2023-02-28T12:23:44.398Z,33.88
2023-02-28T12:26:25.539Z,34.70
2023-02-28T12:28:59.184Z,32.82
2023-02-28T12:31:32.024Z,30.30
2023-02-28T12:34:04.836Z,32.36
2023-02-28T12:36:31.417Z,31.67
2023-02-28T12:39:04.112Z,30.38
2023-02-28T12:41:40.135Z,30.29
2023-02-28T12:44:15.469Z,30.92
2023-02-28T12:46:52.016Z,29.20
2023-02-28T12:49:55.642Z,28.67
2023-02-28T12:52:44.009Z,29.17
2023-02-28T12:55:26.200Z,29.07
2023-02-28T12:58:21.784Z,29.12
2023-02-28T13:01:03.556Z,28.88
2023-02-28T13:03:45.022Z,29.19
2023-02-28T13:06:21.218Z,27.57
2023-02-28T13:09:09.791Z,28.25
2023-02-28T13:11:43.345Z,28.54
2023-02-28T13:14:34.137Z,28.41
2023-02-28T13:17:12.708Z,28.23
2023-02-28T13:20:01.854Z,28.48
2023-02-28T13:22:50.244Z,30.20
2023-02-28T13:25:23.081Z,30.08
2023-02-28T13:27:57.665Z,27.12
2023-02-28T13:30:52.748Z,27.91
2023-02-28T13:33:24.717Z,28.43
2023-02-28T13:36:09.705Z,29.10
2023-02-28T13:38:39.834Z,29.79
2023-02-28T13:41:37.142Z,30.17
2023-02-28T13:44:15.582Z,29.07
2023-02-28T13:46:48.306Z,29.87
2023-02-28T13:49:26.880Z,31.00
2023-02-28T13:52:03.443Z,31.84
2023-02-28T13:55:09.598Z,31.81
2023-02-28T13:58:13.957Z,32.58
2023-02-28T14:01:22.223Z,32.86
2023-02-28T14:04:16.140Z,33.08
2023-02-28T14:06:52.963Z,34.16
2023-02-28T14:09:32.311Z,34.24
2023-02-28T14:12:37.480Z,34.94
2023-02-28T14:15:06.495Z,34.50
2023-02-28T14:17:33.708Z,34.49
2023-02-28T14:20:00.862Z,35.53
2023-02-28T14:22:30.400Z,36.26
2023-02-28T14:25:19.688Z,36.48
2023-02-28T14:28:13.316Z,36.36
2023-02-28T14:30:52.088Z,35.96
2023-02-28T14:33:30.660Z,36.60
2023-02-28T14:36:02.947Z,36.43
2023-02-28T14:38:36.152Z,36.54
2023-02-28T14:41:07.937Z,37.15
2023-02-28T14:43:34.515Z,37.02
2023-02-28T14:46:04.293Z,37.06
2023-02-28T14:48:31.396Z,36.84
2023-02-28T14:51:00.219Z,37.33
2023-02-28T14:53:30.471Z,37.34
2023-02-28T14:55:57.766Z,37.49
2023-02-28T14:58:35.279Z,37.71
2023-02-28T15:01:04.388Z,38.63
2023-02-28T15:03:39.350Z,39.02
2023-02-28T15:06:13.289Z,38.64
2023-02-28T15:08:39.845Z,38.69
2023-02-28T15:11:13.648Z,39.35
2023-02-28T15:13:46.202Z,39.30
2023-02-28T15:16:23.129Z,39.34
2023-02-28T15:18:53.644Z,39.69
2023-02-28T15:21:27.523Z,40.01
2023-02-28T15:24:24.799Z,39.72
2023-02-28T15:26:56.196Z,40.02
2023-02-28T15:29:25.721Z,40.91
2023-02-28T15:32:02.985Z,40.53
2023-02-28T15:34:42.174Z,40.68
2023-02-28T15:37:42.265Z,41.43
2023-02-28T15:40:17.256Z,41.34
2023-02-28T15:42:58.667Z,41.61
2023-02-28T15:45:57.846Z,41.90
2023-02-28T15:48:36.970Z,42.06
2023-02-28T15:51:06.624Z,42.03
2023-02-28T15:53:55.594Z,43.29
2023-02-28T15:56:29.958Z,43.06
2023-02-28T15:59:01.623Z,43.52
2023-02-28T16:01:31.064Z,43.21
2023-02-28T16:04:04.274Z,43.32
2023-02-28T16:06:37.497Z,43.62
2023-02-28T16:09:06.064Z,43.19
2023-02-28T16:11:36.153Z,43.83
2023-02-28T16:14:04.259Z,43.89
2023-02-28T16:16:32.496Z,43.85
2023-02-28T16:18:59.157Z,44.08
2023-02-28T16:21:26.799Z,44.09
2023-02-28T16:23:53.408Z,44.26
2023-02-28T16:26:24.042Z,44.62
2023-02-28T16:28:52.037Z,45.35
2023-02-28T16:31:19.064Z,45.01
2023-02-28T16:33:46.670Z,45.17
2023-02-28T16:36:21.985Z,45.36
2023-02-28T16:38:48.925Z,45.24
2023-02-28T16:41:21.875Z,46.12
2023-02-28T16:43:51.022Z,46.23
2023-02-28T16:46:18.608Z,45.59
2023-02-28T16:48:46.328Z,46.62
2023-02-28T16:51:14.768Z,46.86
2023-02-28T16:53:41.428Z,46.86
2023-02-28T16:56:16.790Z,46.66
2023-02-28T16:58:43.429Z,47.12
2023-02-28T17:01:10.103Z,47.61
2023-02-28T17:03:37.834Z,47.37
2023-02-28T17:06:05.392Z,47.58
2023-02-28T17:08:33.193Z,47.97
2023-02-28T17:11:00.339Z,47.96
2023-02-28T17:13:26.983Z,48.20
2023-02-28T17:15:53.649Z,47.95
2023-02-28T17:18:22.114Z,47.98
2023-02-28T17:20:49.415Z,48.35
2023-02-28T17:23:16.956Z,48.88
2023-02-28T17:25:56.322Z,48.94
2023-02-28T17:28:24.495Z,49.12
2023-02-28T17:30:51.123Z,49.05
2023-02-28T17:33:17.803Z,49.39
2023-02-28T17:35:44.401Z,49.58
2023-02-28T17:38:18.019Z,49.91
2023-02-28T17:40:45.335Z,50.04
2023-02-28T17:43:11.999Z,49.65
2023-02-28T17:45:38.692Z,50.49
2023-02-28T17:48:05.926Z,50.03
2023-02-28T17:50:32.992Z,50.36
2023-02-28T17:52:59.650Z,50.32
2023-02-28T17:55:26.286Z,51.03
2023-02-28T17:57:52.967Z,51.00
2023-02-28T18:00:20.077Z,50.87
2023-02-28T18:02:46.744Z,51.14
2023-02-28T18:05:13.508Z,50.97
2023-02-28T18:07:40.841Z,51.10
2023-02-28T18:10:14.265Z,51.58
2023-02-28T18:12:40.850Z,51.39
2023-02-28T18:15:07.753Z,51.62
2023-02-28T18:17:34.396Z,51.60
2023-02-28T18:20:00.916Z,51.95
2023-02-28T18:22:27.505Z,52.22
2023-02-28T18:24:54.026Z,51.74
2023-02-28T18:27:20.679Z,52.28
2023-02-28T18:29:47.306Z,52.94
2023-02-28T18:32:13.956Z,52.56
2023-02-28T18:34:40.657Z,52.93
2023-02-28T18:37:07.406Z,52.43
2023-02-28T18:39:33.986Z,52.31
2023-02-28T18:42:00.564Z,52.45
2023-02-28T18:44:27.191Z,53.12
2023-02-28T18:46:53.832Z,52.28
2023-02-28T18:49:20.743Z,52.77
2023-02-28T18:51:47.482Z,53.03
2023-02-28T18:54:15.807Z,52.74
2023-02-28T18:56:42.384Z,53.11
2023-02-28T18:59:09.043Z,52.87
2023-02-28T19:01:36.406Z,53.30
2023-02-28T19:04:03.762Z,53.32
2023-02-28T19:06:32.875Z,52.98
2023-02-28T19:09:01.837Z,53.11
2023-02-28T19:11:28.739Z,53.47
2023-02-28T19:13:56.500Z,54.29
2023-02-28T19:16:23.106Z,54.46
2023-02-28T19:18:50.248Z,53.61
2023-02-28T19:21:19.276Z,54.02
2023-02-28T19:23:45.932Z,54.21
2023-02-28T19:26:15.748Z,54.48
2023-02-28T19:28:42.388Z,54.95
2023-02-28T19:31:14.274Z,54.72
2023-02-28T19:33:41.640Z,54.32
2023-02-28T19:36:12.058Z,54.53
2023-02-28T19:38:40.066Z,54.34
2023-02-28T19:41:11.712Z,54.68
2023-02-28T19:43:38.815Z,55.24
2023-02-28T19:46:07.270Z,55.21
2023-02-28T19:48:33.837Z,56.03
2023-02-28T19:51:09.428Z,55.57
2023-02-28T19:53:37.438Z,55.44
2023-02-28T19:56:04.727Z,55.55
2023-02-28T19:58:32.037Z,55.42
2023-02-28T20:01:01.259Z,55.22
2023-02-28T20:03:27.881Z,55.24
2023-02-28T20:06:03.802Z,55.27
2023-02-28T20:08:31.019Z,55.16
2023-02-28T20:11:12.434Z,55.24
2023-02-28T20:13:39.159Z,56.33
2023-02-28T20:16:09.625Z,56.05
2023-02-28T20:18:37.904Z,56.44
2023-02-28T20:21:05.084Z,56.53
2023-02-28T20:23:31.771Z,56.42
2023-02-28T20:26:02.494Z,56.76
2023-02-28T20:28:29.128Z,56.18
2023-02-28T20:30:55.908Z,55.82
2023-02-28T20:33:22.721Z,56.01
2023-02-28T20:35:52.636Z,56.44
2023-02-28T20:38:20.303Z,56.12
2023-02-28T20:40:46.865Z,56.29
2023-02-28T20:43:13.569Z,56.50
2023-02-28T20:45:40.305Z,56.40
2023-02-28T20:48:06.856Z,56.66
2023-02-28T20:50:33.382Z,57.01
2023-02-28T20:52:59.981Z,56.97
2023-02-28T20:55:26.536Z,56.95
2023-02-28T20:57:54.181Z,56.96
2023-02-28T21:00:22.415Z,56.52
2023-02-28T21:02:49.056Z,56.47
2023-02-28T21:05:15.745Z,57.19
2023-02-28T21:07:42.294Z,56.55
2023-02-28T21:10:09.999Z,56.92
2023-02-28T21:12:36.576Z,56.78
2023-02-28T21:15:03.759Z,57.08
2023-02-28T21:17:30.421Z,56.45
2023-02-28T21:19:57.077Z,57.57
2023-02-28T21:22:23.603Z,57.22
2023-02-28T21:24:50.148Z,57.54
2023-02-28T21:27:16.759Z,57.24
2023-02-28T21:29:43.337Z,57.01
2023-02-28T21:32:10.062Z,57.13
2023-02-28T21:34:36.720Z,57.54
2023-02-28T21:37:03.859Z,57.38
2023-02-28T21:39:30.751Z,57.36
2023-02-28T21:42:03.504Z,57.26
2023-02-28T21:44:31.331Z,57.50
2023-02-28T21:47:01.054Z,57.29
2023-02-28T21:49:28.516Z,57.60
2023-02-28T21:51:55.154Z,58.06
2023-02-28T21:54:21.746Z,57.50
2023-02-28T21:56:50.766Z,58.11
2023-02-28T21:59:18.106Z,57.94
2023-02-28T22:01:45.519Z,58.18
2023-02-28T22:04:21.137Z,57.68
2023-02-28T22:06:53.320Z,58.00
2023-02-28T22:09:20.630Z,58.20
2023-02-28T22:11:47.599Z,57.46
2023-02-28T22:14:14.158Z,57.28
2023-02-28T22:16:51.245Z,57.33
2023-02-28T22:19:19.904Z,57.68
2023-02-28T22:21:47.438Z,58.01
2023-02-28T22:24:15.528Z,57.97
2023-02-28T22:26:42.131Z,58.03
2023-02-28T22:29:08.732Z,58.18
2023-02-28T22:31:36.839Z,57.37
2023-02-28T22:34:09.528Z,57.83
2023-02-28T22:36:36.855Z,57.70
2023-02-28T22:39:05.308Z,57.92
2023-02-28T22:41:32.503Z,58.12
2023-02-28T22:44:01.713Z,58.50
2023-02-28T22:46:31.143Z,58.25
2023-02-28T22:49:01.650Z,58.25
2023-02-28T22:51:29.050Z,57.87
2023-02-28T22:53:56.922Z,57.71
2023-02-28T22:56:26.692Z,57.98
2023-02-28T22:58:55.539Z,57.88
2023-02-28T23:01:23.997Z,58.29
2023-02-28T23:03:51.377Z,58.17
2023-02-28T23:06:22.923Z,57.81
2023-02-28T23:08:50.862Z,57.97
2023-02-28T23:11:23.695Z,58.07
2023-02-28T23:13:59.800Z,58.59
2023-02-28T23:16:37.208Z,58.09
2023-02-28T23:19:06.897Z,58.70
2023-02-28T23:21:34.568Z,58.68
2023-02-28T23:24:03.198Z,58.96
2023-02-28T23:26:31.850Z,58.47
2023-02-28T23:28:59.535Z,58.58
2023-02-28T23:31:26.299Z,58.37
2023-02-28T23:33:52.926Z,59.00
2023-02-28T23:36:19.721Z,58.84
2023-02-28T23:38:49.283Z,59.14
2023-02-28T23:41:17.260Z,58.70
2023-02-28T23:43:44.196Z,59.02
2023-02-28T23:46:12.015Z,58.43
2023-02-28T23:48:39.204Z,58.77
2023-02-28T23:51:12.021Z,58.69
2023-02-28T23:53:41.132Z,58.90
2023-02-28T23:56:09.775Z,58.45
2023-02-28T23:58:36.842Z,58.49
